sensor_id;sensor_type;location;lat;lon;timestamp;pressure;altitude;pressure_sealevel;temperature;humidity
39681;BME280;26327;42.550;23.120;2023-07-08T00:02:09;93155.66;;;19.21;100.00
39681;BME280;26327;42.550;23.120;2023-07-08T00:04:38;93207.56;;;19.32;100.00
39681;BME280;26327;42.550;23.120;2023-07-08T00:07:05;93108.44;;;18.96;100.00
39681;BME280;26327;42.550;23.120;2023-07-08T00:09:30;93191.22;;;19.71;100.00
39681;BME280;26327;42.550;23.120;2023-07-08T00:11:56;93165.75;;;19.77;100.00
39681;BME280;26327;42.550;23.120;2023-07-08T00:14:24;93171.66;;;19.91;100.00
39681;BME280;26327;42.550;23.120;2023-07-08T00:16:50;93143.97;;;19.81;100.00
39681;BME280;26327;42.550;23.120;2023-07-08T00:19:16;93123.25;;;19.62;100.00
39681;BME280;26327;42.550;23.120;2023-07-08T00:21:45;93178.75;;;19.90;100.00
39681;BME280;26327;42.550;23.120;2023-07-08T00:24:10;93184.03;;;20.02;100.00
39681;BME280;26327;42.550;23.120;2023-07-08T00:26:37;93114.19;;;19.58;100.00
39681;BME280;26327;42.550;23.120;2023-07-08T00:29:02;93089.09;;;19.67;100.00
39681;BME280;26327;42.550;23.120;2023-07-08T00:31:28;93096.31;;;19.60;100.00
39681;BME280;26327;42.550;23.120;2023-07-08T00:33:57;93138.47;;;19.83;100.00
39681;BME280;26327;42.550;23.120;2023-07-08T00:36:24;93152.47;;;20.07;100.00
39681;BME280;26327;42.550;23.120;2023-07-08T00:38:50;93125.75;;;19.57;100.00
39681;BME280;26327;42.550;23.120;2023-07-08T00:43:53;93148.00;;;19.72;100.00
39681;BME280;26327;42.550;23.120;2023-07-08T00:51:33;93097.66;;;18.67;100.00
39681;BME280;26327;42.550;23.120;2023-07-08T00:53:59;93153.97;;;19.38;100.00
39681;BME280;26327;42.550;23.120;2023-07-08T00:56:43;93088.31;;;19.25;100.00
39681;BME280;26327;42.550;23.120;2023-07-08T00:59:17;93144.03;;;19.40;100.00
39681;BME280;26327;42.550;23.120;2023-07-08T01:01:45;93133.81;;;19.32;100.00
39681;BME280;26327;42.550;23.120;2023-07-08T01:07:34;93122.66;;;18.58;100.00
39681;BME280;26327;42.550;23.120;2023-07-08T01:10:06;93153.78;;;18.98;100.00
39681;BME280;26327;42.550;23.120;2023-07-08T01:12:40;93143.59;;;19.01;100.00
39681;BME280;26327;42.550;23.120;2023-07-08T01:15:08;93086.50;;;18.53;100.00
39681;BME280;26327;42.550;23.120;2023-07-08T01:17:35;93090.44;;;18.63;100.00
39681;BME280;26327;42.550;23.120;2023-07-08T01:20:02;93149.53;;;18.97;100.00
39681;BME280;26327;42.550;23.120;2023-07-08T01:22:34;93110.88;;;18.79;100.00
39681;BME280;26327;42.550;23.120;2023-07-08T01:25:00;93123.63;;;18.64;100.00
39681;BME280;26327;42.550;23.120;2023-07-08T01:27:32;93083.72;;;18.48;100.00
39681;BME280;26327;42.550;23.120;2023-07-08T01:29:59;93054.53;;;18.68;100.00
39681;BME280;26327;42.550;23.120;2023-07-08T01:32:25;93147.03;;;19.02;100.00
39681;BME280;26327;42.550;23.120;2023-07-08T01:34:52;93058.81;;;18.33;100.00
39681;BME280;26327;42.550;23.120;2023-07-08T01:37:33;93140.75;;;18.84;100.00
39681;BME280;26327;42.550;23.120;2023-07-08T01:40:14;93120.50;;;19.15;100.00
39681;BME280;26327;42.550;23.120;2023-07-08T01:42:40;93101.84;;;19.16;100.00
39681;BME280;26327;42.550;23.120;2023-07-08T01:45:17;93119.88;;;19.01;100.00
39681;BME280;26327;42.550;23.120;2023-07-08T01:47:46;93056.41;;;18.79;100.00
39681;BME280;26327;42.550;23.120;2023-07-08T01:50:14;93135.00;;;19.06;100.00
39681;BME280;26327;42.550;23.120;2023-07-08T01:52:40;93141.75;;;19.02;100.00
39681;BME280;26327;42.550;23.120;2023-07-08T01:55:06;93130.31;;;18.78;100.00
39681;BME280;26327;42.550;23.120;2023-07-08T01:57:31;93107.25;;;18.62;100.00
39681;BME280;26327;42.550;23.120;2023-07-08T01:59:57;93077.59;;;18.36;100.00
39681;BME280;26327;42.550;23.120;2023-07-08T02:02:22;93128.44;;;18.67;100.00
39681;BME280;26327;42.550;23.120;2023-07-08T02:04:49;93137.50;;;18.71;100.00
39681;BME280;26327;42.550;23.120;2023-07-08T02:07:15;93127.34;;;18.74;100.00
39681;BME280;26327;42.550;23.120;2023-07-08T02:09:41;93143.47;;;18.96;100.00
39681;BME280;26327;42.550;23.120;2023-07-08T02:12:06;93139.72;;;19.04;100.00
39681;BME280;26327;42.550;23.120;2023-07-08T02:14:32;93111.09;;;19.19;100.00
39681;BME280;26327;42.550;23.120;2023-07-08T02:16:57;93058.81;;;18.81;100.00
39681;BME280;26327;42.550;23.120;2023-07-08T02:19:24;93072.06;;;19.28;100.00
39681;BME280;26327;42.550;23.120;2023-07-08T02:21:49;93119.13;;;19.24;100.00
39681;BME280;26327;42.550;23.120;2023-07-08T02:24:17;93144.31;;;19.20;100.00
39681;BME280;26327;42.550;23.120;2023-07-08T02:26:42;93149.31;;;18.98;100.00
39681;BME280;26327;42.550;23.120;2023-07-08T02:29:08;93133.44;;;19.16;100.00
39681;BME280;26327;42.550;23.120;2023-07-08T02:31:33;93130.28;;;18.96;100.00
39681;BME280;26327;42.550;23.120;2023-07-08T02:33:58;93114.72;;;18.65;100.00
39681;BME280;26327;42.550;23.120;2023-07-08T02:36:24;93081.09;;;18.48;100.00
39681;BME280;26327;42.550;23.120;2023-07-08T02:38:49;93130.94;;;19.22;100.00
39681;BME280;26327;42.550;23.120;2023-07-08T02:41:16;93117.97;;;19.08;100.00
39681;BME280;26327;42.550;23.120;2023-07-08T02:43:41;93127.69;;;18.60;100.00
39681;BME280;26327;42.550;23.120;2023-07-08T02:46:07;93090.16;;;18.52;100.00
39681;BME280;26327;42.550;23.120;2023-07-08T02:48:32;93091.97;;;18.70;100.00
39681;BME280;26327;42.550;23.120;2023-07-08T02:51:02;93072.84;;;18.75;100.00
39681;BME280;26327;42.550;23.120;2023-07-08T02:53:28;93155.31;;;19.17;100.00
39681;BME280;26327;42.550;23.120;2023-07-08T02:55:54;93077.13;;;18.87;100.00
39681;BME280;26327;42.550;23.120;2023-07-08T02:58:19;93154.16;;;19.13;100.00
39681;BME280;26327;42.550;23.120;2023-07-08T03:00:45;93086.78;;;18.64;100.00
39681;BME280;26327;42.550;23.120;2023-07-08T03:03:10;93154.50;;;19.16;100.00
39681;BME280;26327;42.550;23.120;2023-07-08T03:05:36;93177.56;;;19.33;100.00
39681;BME280;26327;42.550;23.120;2023-07-08T03:08:01;93147.44;;;19.29;100.00
39681;BME280;26327;42.550;23.120;2023-07-08T03:10:27;93168.41;;;19.35;100.00
39681;BME280;26327;42.550;23.120;2023-07-08T03:12:52;93103.88;;;18.73;100.00
39681;BME280;26327;42.550;23.120;2023-07-08T03:15:18;93130.41;;;18.71;100.00
39681;BME280;26327;42.550;23.120;2023-07-08T03:17:43;93169.69;;;19.03;100.00
39681;BME280;26327;42.550;23.120;2023-07-08T03:20:10;93092.44;;;18.31;100.00
39681;BME280;26327;42.550;23.120;2023-07-08T03:22:36;93168.66;;;18.74;100.00
39681;BME280;26327;42.550;23.120;2023-07-08T03:25:02;93147.47;;;18.69;100.00
39681;BME280;26327;42.550;23.120;2023-07-08T03:27:28;93141.66;;;18.60;100.00
39681;BME280;26327;42.550;23.120;2023-07-08T03:29:53;93147.72;;;18.61;100.00
39681;BME280;26327;42.550;23.120;2023-07-08T03:32:19;93112.44;;;18.50;100.00
39681;BME280;26327;42.550;23.120;2023-07-08T03:34:44;93096.94;;;18.60;100.00
39681;BME280;26327;42.550;23.120;2023-07-08T03:37:10;93081.78;;;18.74;100.00
39681;BME280;26327;42.550;23.120;2023-07-08T03:39:35;93145.94;;;19.21;100.00
39681;BME280;26327;42.550;23.120;2023-07-08T03:42:01;93145.72;;;19.23;100.00
39681;BME280;26327;42.550;23.120;2023-07-08T03:44:27;93054.59;;;18.92;100.00
39681;BME280;26327;42.550;23.120;2023-07-08T03:46:52;93072.84;;;19.16;100.00
39681;BME280;26327;42.550;23.120;2023-07-08T03:49:19;93144.56;;;19.60;100.00
39681;BME280;26327;42.550;23.120;2023-07-08T03:51:50;93058.28;;;19.02;100.00
39681;BME280;26327;42.550;23.120;2023-07-08T03:54:17;93148.09;;;19.54;100.00
39681;BME280;26327;42.550;23.120;2023-07-08T03:56:44;93148.88;;;19.43;100.00
39681;BME280;26327;42.550;23.120;2023-07-08T03:59:09;93112.56;;;19.03;100.00
39681;BME280;26327;42.550;23.120;2023-07-08T04:01:35;93097.94;;;18.77;100.00
39681;BME280;26327;42.550;23.120;2023-07-08T04:04:00;93110.09;;;18.90;100.00
39681;BME280;26327;42.550;23.120;2023-07-08T04:06:27;93069.97;;;18.65;100.00
39681;BME280;26327;42.550;23.120;2023-07-08T04:08:54;93072.41;;;18.48;100.00
39681;BME280;26327;42.550;23.120;2023-07-08T04:11:21;93129.66;;;18.82;100.00
39681;BME280;26327;42.550;23.120;2023-07-08T04:13:48;93137.22;;;18.91;100.00
39681;BME280;26327;42.550;23.120;2023-07-08T04:16:17;93110.47;;;18.45;100.00
39681;BME280;26327;42.550;23.120;2023-07-08T04:18:43;93095.09;;;18.42;100.00
39681;BME280;26327;42.550;23.120;2023-07-08T04:21:09;93139.38;;;18.82;100.00
39681;BME280;26327;42.550;23.120;2023-07-08T04:23:34;93128.81;;;19.00;100.00
39681;BME280;26327;42.550;23.120;2023-07-08T04:26:00;93073.88;;;18.74;100.00
39681;BME280;26327;42.550;23.120;2023-07-08T04:28:26;93137.56;;;19.12;100.00
39681;BME280;26327;42.550;23.120;2023-07-08T04:30:52;93150.97;;;19.23;100.00
39681;BME280;26327;42.550;23.120;2023-07-08T04:33:17;93131.78;;;18.74;100.00
39681;BME280;26327;42.550;23.120;2023-07-08T04:35:44;93113.97;;;18.39;100.00
39681;BME280;26327;42.550;23.120;2023-07-08T04:40:39;93170.16;;;19.41;100.00
39681;BME280;26327;42.550;23.120;2023-07-08T04:43:09;93161.56;;;19.04;100.00
39681;BME280;26327;42.550;23.120;2023-07-08T04:45:39;93168.72;;;19.27;100.00
39681;BME280;26327;42.550;23.120;2023-07-08T04:48:06;93107.41;;;18.97;100.00
39681;BME280;26327;42.550;23.120;2023-07-08T04:50:42;93092.31;;;19.04;100.00
39681;BME280;26327;42.550;23.120;2023-07-08T04:53:08;93102.03;;;18.73;100.00
39681;BME280;26327;42.550;23.120;2023-07-08T04:55:35;93180.19;;;19.33;100.00
39681;BME280;26327;42.550;23.120;2023-07-08T04:58:01;93130.78;;;18.75;100.00
39681;BME280;26327;42.550;23.120;2023-07-08T05:00:27;93185.56;;;19.26;100.00
39681;BME280;26327;42.550;23.120;2023-07-08T05:02:53;93115.38;;;18.90;100.00
39681;BME280;26327;42.550;23.120;2023-07-08T05:05:19;93182.81;;;19.21;100.00
39681;BME280;26327;42.550;23.120;2023-07-08T05:07:45;93166.03;;;19.04;100.00
39681;BME280;26327;42.550;23.120;2023-07-08T05:10:10;93120.34;;;18.68;100.00
39681;BME280;26327;42.550;23.120;2023-07-08T05:12:36;93180.44;;;19.31;100.00
39681;BME280;26327;42.550;23.120;2023-07-08T05:15:02;93051.03;;;18.86;100.00
39681;BME280;26327;42.550;23.120;2023-07-08T05:17:28;93182.84;;;19.74;100.00
39681;BME280;26327;42.550;23.120;2023-07-08T05:19:53;93194.66;;;19.72;100.00
39681;BME280;26327;42.550;23.120;2023-07-08T05:22:19;93185.13;;;19.71;100.00
39681;BME280;26327;42.550;23.120;2023-07-08T05:24:50;93185.31;;;19.46;100.00
39681;BME280;26327;42.550;23.120;2023-07-08T05:27:18;93133.56;;;19.22;100.00
39681;BME280;26327;42.550;23.120;2023-07-08T05:29:45;93126.91;;;19.19;100.00
39681;BME280;26327;42.550;23.120;2023-07-08T05:32:11;93102.84;;;19.15;100.00
39681;BME280;26327;42.550;23.120;2023-07-08T05:34:36;93179.69;;;19.42;100.00
39681;BME280;26327;42.550;23.120;2023-07-08T05:37:01;93141.38;;;19.28;100.00
39681;BME280;26327;42.550;23.120;2023-07-08T05:39:29;93187.66;;;19.77;100.00
39681;BME280;26327;42.550;23.120;2023-07-08T05:41:55;93127.38;;;19.28;100.00
39681;BME280;26327;42.550;23.120;2023-07-08T05:44:20;93179.28;;;19.57;100.00
39681;BME280;26327;42.550;23.120;2023-07-08T05:46:45;93210.16;;;20.15;100.00
39681;BME280;26327;42.550;23.120;2023-07-08T05:49:11;93214.75;;;19.96;100.00
39681;BME280;26327;42.550;23.120;2023-07-08T05:51:36;93126.53;;;19.45;100.00
39681;BME280;26327;42.550;23.120;2023-07-08T05:54:02;93217.28;;;20.26;100.00
39681;BME280;26327;42.550;23.120;2023-07-08T05:56:27;93213.16;;;20.19;100.00
39681;BME280;26327;42.550;23.120;2023-07-08T05:58:53;93125.53;;;19.58;100.00
39681;BME280;26327;42.550;23.120;2023-07-08T06:01:18;93163.94;;;20.12;100.00
39681;BME280;26327;42.550;23.120;2023-07-08T06:03:43;93168.84;;;20.32;100.00
39681;BME280;26327;42.550;23.120;2023-07-08T06:06:09;93232.75;;;20.81;100.00
39681;BME280;26327;42.550;23.120;2023-07-08T06:08:34;93235.44;;;20.58;100.00
39681;BME280;26327;42.550;23.120;2023-07-08T06:11:00;93212.69;;;20.57;100.00
39681;BME280;26327;42.550;23.120;2023-07-08T06:13:25;93207.88;;;20.54;100.00
39681;BME280;26327;42.550;23.120;2023-07-08T06:15:51;93239.66;;;20.70;100.00
39681;BME280;26327;42.550;23.120;2023-07-08T06:18:16;93218.41;;;20.77;100.00
39681;BME280;26327;42.550;23.120;2023-07-08T06:20:42;93177.34;;;20.58;100.00
39681;BME280;26327;42.550;23.120;2023-07-08T06:23:15;93175.28;;;20.60;100.00
39681;BME280;26327;42.550;23.120;2023-07-08T06:25:40;93239.06;;;20.92;100.00
39681;BME280;26327;42.550;23.120;2023-07-08T06:28:06;93238.81;;;20.93;100.00
39681;BME280;26327;42.550;23.120;2023-07-08T06:30:31;93215.66;;;20.72;100.00
39681;BME280;26327;42.550;23.120;2023-07-08T06:32:57;93229.16;;;20.99;100.00
39681;BME280;26327;42.550;23.120;2023-07-08T06:35:22;93242.25;;;20.94;100.00
39681;BME280;26327;42.550;23.120;2023-07-08T06:37:47;93234.47;;;20.87;100.00
39681;BME280;26327;42.550;23.120;2023-07-08T06:40:13;93239.28;;;20.79;100.00
39681;BME280;26327;42.550;23.120;2023-07-08T06:42:38;93248.00;;;20.91;100.00
39681;BME280;26327;42.550;23.120;2023-07-08T06:45:04;93184.47;;;20.57;99.93
39681;BME280;26327;42.550;23.120;2023-07-08T06:47:30;93242.03;;;20.95;97.51
39681;BME280;26327;42.550;23.120;2023-07-08T06:49:55;93192.84;;;20.54;97.94
39681;BME280;26327;42.550;23.120;2023-07-08T06:52:20;93176.72;;;20.79;97.22
39681;BME280;26327;42.550;23.120;2023-07-08T06:54:46;93196.59;;;21.10;96.92
39681;BME280;26327;42.550;23.120;2023-07-08T06:57:11;93158.53;;;20.94;97.31
39681;BME280;26327;42.550;23.120;2023-07-08T06:59:37;93189.94;;;21.08;95.78
39681;BME280;26327;42.550;23.120;2023-07-08T07:02:02;93216.66;;;21.34;94.32
39681;BME280;26327;42.550;23.120;2023-07-08T07:04:28;93189.00;;;21.14;92.17
39681;BME280;26327;42.550;23.120;2023-07-08T07:06:55;93171.66;;;20.89;91.95
39681;BME280;26327;42.550;23.120;2023-07-08T07:12:54;93237.91;;;21.28;93.45
39681;BME280;26327;42.550;23.120;2023-07-08T07:15:20;93142.38;;;20.79;93.34
39681;BME280;26327;42.550;23.120;2023-07-08T07:17:45;93216.56;;;21.29;94.65
39681;BME280;26327;42.550;23.120;2023-07-08T07:20:11;93253.22;;;21.54;95.10
39681;BME280;26327;42.550;23.120;2023-07-08T07:22:37;93196.22;;;21.30;91.82
39681;BME280;26327;42.550;23.120;2023-07-08T07:25:03;93238.75;;;21.74;90.85
39681;BME280;26327;42.550;23.120;2023-07-08T07:27:29;93258.22;;;22.13;90.06
39681;BME280;26327;42.550;23.120;2023-07-08T07:29:54;93262.72;;;22.12;88.80
39681;BME280;26327;42.550;23.120;2023-07-08T07:32:23;93212.13;;;21.63;88.91
39681;BME280;26327;42.550;23.120;2023-07-08T07:34:49;93244.78;;;22.03;88.83
39681;BME280;26327;42.550;23.120;2023-07-08T07:37:17;93266.97;;;22.30;88.37
39681;BME280;26327;42.550;23.120;2023-07-08T07:39:43;93261.03;;;22.06;88.20
39681;BME280;26327;42.550;23.120;2023-07-08T07:42:09;93207.00;;;21.74;90.80
39681;BME280;26327;42.550;23.120;2023-07-08T07:44:35;93185.47;;;21.82;88.52
39681;BME280;26327;42.550;23.120;2023-07-08T07:47:02;93144.97;;;21.64;86.81
39681;BME280;26327;42.550;23.120;2023-07-08T07:49:27;93261.75;;;22.35;87.27
39681;BME280;26327;42.550;23.120;2023-07-08T07:51:53;93198.09;;;22.25;87.19
39681;BME280;26327;42.550;23.120;2023-07-08T07:54:18;93253.31;;;22.55;87.87
39681;BME280;26327;42.550;23.120;2023-07-08T07:56:44;93201.03;;;22.28;86.49
39681;BME280;26327;42.550;23.120;2023-07-08T07:59:10;93197.56;;;22.45;86.28
39681;BME280;26327;42.550;23.120;2023-07-08T08:04:58;93272.06;;;23.09;85.08
39681;BME280;26327;42.550;23.120;2023-07-08T08:07:23;93255.38;;;22.86;85.39
39681;BME280;26327;42.550;23.120;2023-07-08T08:13:10;93242.91;;;22.70;84.26
39681;BME280;26327;42.550;23.120;2023-07-08T08:19:35;93261.13;;;23.22;87.36
39681;BME280;26327;42.550;23.120;2023-07-08T08:22:00;93245.63;;;22.92;83.70
39681;BME280;26327;42.550;23.120;2023-07-08T08:27:48;93257.47;;;22.84;84.96
39681;BME280;26327;42.550;23.120;2023-07-08T08:30:13;93188.56;;;22.46;85.76
39681;BME280;26327;42.550;23.120;2023-07-08T08:32:39;93232.50;;;23.02;85.64
39681;BME280;26327;42.550;23.120;2023-07-08T08:35:05;93244.81;;;23.13;83.91
39681;BME280;26327;42.550;23.120;2023-07-08T08:37:30;93199.81;;;22.75;83.01
39681;BME280;26327;42.550;23.120;2023-07-08T08:39:56;93193.56;;;22.64;83.69
39681;BME280;26327;42.550;23.120;2023-07-08T08:42:34;93251.94;;;23.30;84.76
39681;BME280;26327;42.550;23.120;2023-07-08T08:45:02;93185.94;;;22.84;82.94
39681;BME280;26327;42.550;23.120;2023-07-08T08:47:39;93232.72;;;23.44;83.05
39681;BME280;26327;42.550;23.120;2023-07-08T08:50:18;93194.34;;;23.03;84.53
39681;BME280;26327;42.550;23.120;2023-07-08T08:52:45;93238.22;;;23.38;85.11
39681;BME280;26327;42.550;23.120;2023-07-08T08:55:12;93183.94;;;22.97;83.11
39681;BME280;26327;42.550;23.120;2023-07-08T08:57:49;93216.91;;;23.28;83.40
39681;BME280;26327;42.550;23.120;2023-07-08T09:00:25;93235.22;;;23.78;83.91
39681;BME280;26327;42.550;23.120;2023-07-08T09:03:14;93247.78;;;23.88;83.13
39681;BME280;26327;42.550;23.120;2023-07-08T09:05:43;93254.34;;;23.80;81.03
39681;BME280;26327;42.550;23.120;2023-07-08T09:14:44;93237.66;;;24.48;81.16
39681;BME280;26327;42.550;23.120;2023-07-08T09:17:31;93241.94;;;24.17;79.89
39681;BME280;26327;42.550;23.120;2023-07-08T09:25:30;93233.53;;;23.99;81.95
39681;BME280;26327;42.550;23.120;2023-07-08T09:27:57;93174.06;;;23.95;83.42
39681;BME280;26327;42.550;23.120;2023-07-08T09:30:23;93215.28;;;24.07;83.16
39681;BME280;26327;42.550;23.120;2023-07-08T09:32:50;93157.53;;;24.20;82.46
39681;BME280;26327;42.550;23.120;2023-07-08T09:35:27;93217.00;;;24.56;79.68
39681;BME280;26327;42.550;23.120;2023-07-08T09:37:54;93234.66;;;24.77;80.42
39681;BME280;26327;42.550;23.120;2023-07-08T09:40:31;93225.19;;;24.96;78.92
39681;BME280;26327;42.550;23.120;2023-07-08T09:43:02;93153.56;;;24.64;78.71
39681;BME280;26327;42.550;23.120;2023-07-08T09:45:40;93219.84;;;24.91;79.44
39681;BME280;26327;42.550;23.120;2023-07-08T09:48:15;93193.50;;;24.85;80.39
39681;BME280;26327;42.550;23.120;2023-07-08T09:50:43;93210.53;;;24.89;80.56
39681;BME280;26327;42.550;23.120;2023-07-08T09:53:13;93103.34;;;24.15;78.45
39681;BME280;26327;42.550;23.120;2023-07-08T09:55:39;93159.13;;;24.63;79.10
39681;BME280;26327;42.550;23.120;2023-07-08T10:01:26;93205.84;;;25.06;79.25
39681;BME280;26327;42.550;23.120;2023-07-08T10:03:58;93192.75;;;24.94;78.44
39681;BME280;26327;42.550;23.120;2023-07-08T10:06:31;93200.53;;;24.59;76.83
39681;BME280;26327;42.550;23.120;2023-07-08T10:09:02;93215.47;;;24.65;78.22
39681;BME280;26327;42.550;23.120;2023-07-08T10:11:36;93209.06;;;25.08;77.54
39681;BME280;26327;42.550;23.120;2023-07-08T10:16:49;93167.41;;;24.71;77.99
39681;BME280;26327;42.550;23.120;2023-07-08T10:19:19;93208.47;;;25.01;78.60
39681;BME280;26327;42.550;23.120;2023-07-08T10:22:05;93204.25;;;25.05;77.76
39681;BME280;26327;42.550;23.120;2023-07-08T10:27:35;93203.09;;;24.91;76.14
39681;BME280;26327;42.550;23.120;2023-07-08T10:30:11;93141.13;;;24.75;76.34
39681;BME280;26327;42.550;23.120;2023-07-08T10:33:12;93202.63;;;24.99;76.56
39681;BME280;26327;42.550;23.120;2023-07-08T10:35:50;93214.38;;;24.61;76.68
39681;BME280;26327;42.550;23.120;2023-07-08T10:44:45;93187.81;;;25.13;74.24
39681;BME280;26327;42.550;23.120;2023-07-08T10:52:45;93201.19;;;25.43;75.71
39681;BME280;26327;42.550;23.120;2023-07-08T11:01:14;93185.75;;;25.51;74.39
39681;BME280;26327;42.550;23.120;2023-07-08T11:06:55;93158.63;;;25.43;74.37
39681;BME280;26327;42.550;23.120;2023-07-08T11:12:38;93170.69;;;25.87;71.73
39681;BME280;26327;42.550;23.120;2023-07-08T11:17:48;93149.56;;;25.45;71.67
39681;BME280;26327;42.550;23.120;2023-07-08T11:20:22;93169.00;;;25.45;74.33
39681;BME280;26327;42.550;23.120;2023-07-08T11:22:56;93100.88;;;25.24;73.83
39681;BME280;26327;42.550;23.120;2023-07-08T11:25:25;93105.91;;;25.10;73.10
39681;BME280;26327;42.550;23.120;2023-07-08T11:27:55;93157.06;;;25.63;73.96
39681;BME280;26327;42.550;23.120;2023-07-08T11:30:23;93096.88;;;25.21;74.32
39681;BME280;26327;42.550;23.120;2023-07-08T11:32:57;93140.53;;;25.46;73.89
39681;BME280;26327;42.550;23.120;2023-07-08T11:35:45;93166.91;;;25.62;72.37
39681;BME280;26327;42.550;23.120;2023-07-08T11:38:16;93115.50;;;25.31;73.99
39681;BME280;26327;42.550;23.120;2023-07-08T11:41:00;93167.72;;;25.58;72.54
39681;BME280;26327;42.550;23.120;2023-07-08T11:43:48;93166.13;;;25.62;72.08
39681;BME280;26327;42.550;23.120;2023-07-08T11:46:19;93067.25;;;24.77;72.96
39681;BME280;26327;42.550;23.120;2023-07-08T11:48:48;93104.75;;;24.91;73.13
39681;BME280;26327;42.550;23.120;2023-07-08T11:51:28;93120.50;;;25.02;73.88
39681;BME280;26327;42.550;23.120;2023-07-08T11:56:49;93163.50;;;25.67;74.19
39681;BME280;26327;42.550;23.120;2023-07-08T11:59:20;93082.53;;;25.27;73.39
39681;BME280;26327;42.550;23.120;2023-07-08T12:04:27;93123.81;;;25.60;71.55
39681;BME280;26327;42.550;23.120;2023-07-08T12:07:14;93162.34;;;25.48;73.49
39681;BME280;26327;42.550;23.120;2023-07-08T12:09:58;93145.31;;;25.54;71.38
39681;BME280;26327;42.550;23.120;2023-07-08T12:12:35;93079.75;;;24.87;71.15
39681;BME280;26327;42.550;23.120;2023-07-08T12:15:32;93170.63;;;25.61;70.14
39681;BME280;26327;42.550;23.120;2023-07-08T12:21:22;93142.63;;;25.23;72.63
39681;BME280;26327;42.550;23.120;2023-07-08T12:23:48;93120.81;;;25.26;71.09
39681;BME280;26327;42.550;23.120;2023-07-08T12:26:14;93140.00;;;25.33;70.83
39681;BME280;26327;42.550;23.120;2023-07-08T12:28:40;93149.81;;;25.23;70.74
39681;BME280;26327;42.550;23.120;2023-07-08T12:31:20;93121.09;;;25.20;71.80
39681;BME280;26327;42.550;23.120;2023-07-08T12:33:47;93085.72;;;25.14;73.18
39681;BME280;26327;42.550;23.120;2023-07-08T12:36:18;93084.81;;;24.93;72.54
39681;BME280;26327;42.550;23.120;2023-07-08T12:38:45;93146.88;;;25.24;69.45
39681;BME280;26327;42.550;23.120;2023-07-08T12:41:15;93117.63;;;25.14;71.63
39681;BME280;26327;42.550;23.120;2023-07-08T12:43:41;93151.44;;;25.34;72.83
39681;BME280;26327;42.550;23.120;2023-07-08T12:46:09;93154.88;;;25.29;72.60
39681;BME280;26327;42.550;23.120;2023-07-08T12:48:36;93148.28;;;25.57;72.55
39681;BME280;26327;42.550;23.120;2023-07-08T12:51:03;93110.97;;;25.22;71.51
39681;BME280;26327;42.550;23.120;2023-07-08T12:53:29;93140.34;;;25.67;71.30
39681;BME280;26327;42.550;23.120;2023-07-08T12:55:57;93083.88;;;25.45;74.15
39681;BME280;26327;42.550;23.120;2023-07-08T12:58:32;93137.94;;;25.66;70.62
39681;BME280;26327;42.550;23.120;2023-07-08T13:01:01;93092.63;;;25.20;70.89
39681;BME280;26327;42.550;23.120;2023-07-08T13:03:30;93164.75;;;25.49;69.55
39681;BME280;26327;42.550;23.120;2023-07-08T13:05:58;93144.00;;;25.51;70.80
39681;BME280;26327;42.550;23.120;2023-07-08T13:08:29;93043.34;;;24.82;69.91
39681;BME280;26327;42.550;23.120;2023-07-08T13:10:57;93098.50;;;25.27;69.61
39681;BME280;26327;42.550;23.120;2023-07-08T13:13:26;93075.50;;;24.80;68.40
39681;BME280;26327;42.550;23.120;2023-07-08T13:15:53;93089.56;;;24.81;69.33
39681;BME280;26327;42.550;23.120;2023-07-08T13:18:23;93083.50;;;24.96;69.87
39681;BME280;26327;42.550;23.120;2023-07-08T13:20:52;93098.38;;;24.92;68.41
39681;BME280;26327;42.550;23.120;2023-07-08T13:23:18;93109.34;;;25.05;69.84
39681;BME280;26327;42.550;23.120;2023-07-08T13:25:47;93135.72;;;25.22;70.22
39681;BME280;26327;42.550;23.120;2023-07-08T13:28:25;93072.72;;;24.55;69.01
39681;BME280;26327;42.550;23.120;2023-07-08T13:30:55;93151.25;;;24.83;69.21
39681;BME280;26327;42.550;23.120;2023-07-08T13:33:22;93085.47;;;24.53;71.10
39681;BME280;26327;42.550;23.120;2023-07-08T13:35:50;93089.53;;;24.61;70.58
39681;BME280;26327;42.550;23.120;2023-07-08T13:38:21;93080.44;;;24.57;69.66
39681;BME280;26327;42.550;23.120;2023-07-08T13:40:49;93147.34;;;25.01;71.33
39681;BME280;26327;42.550;23.120;2023-07-08T13:43:23;93086.06;;;24.60;73.04
39681;BME280;26327;42.550;23.120;2023-07-08T13:45:50;93118.31;;;24.94;69.48
39681;BME280;26327;42.550;23.120;2023-07-08T13:48:25;93072.84;;;24.80;71.21
39681;BME280;26327;42.550;23.120;2023-07-08T13:51:19;93143.16;;;25.20;70.28
39681;BME280;26327;42.550;23.120;2023-07-08T13:53:50;93074.41;;;24.76;70.52
39681;BME280;26327;42.550;23.120;2023-07-08T13:56:23;93147.59;;;24.99;70.63
39681;BME280;26327;42.550;23.120;2023-07-08T13:58:52;93132.41;;;24.95;70.52
39681;BME280;26327;42.550;23.120;2023-07-08T14:01:19;93147.66;;;25.09;71.19
39681;BME280;26327;42.550;23.120;2023-07-08T14:03:45;93140.34;;;24.79;72.10
39681;BME280;26327;42.550;23.120;2023-07-08T14:06:20;93139.91;;;25.03;73.10
39681;BME280;26327;42.550;23.120;2023-07-08T14:12:08;93121.88;;;25.15;69.44
39681;BME280;26327;42.550;23.120;2023-07-08T14:17:55;93061.41;;;24.85;69.53
39681;BME280;26327;42.550;23.120;2023-07-08T14:20:21;93085.41;;;25.00;68.58
39681;BME280;26327;42.550;23.120;2023-07-08T14:22:48;93085.41;;;25.05;69.48
39681;BME280;26327;42.550;23.120;2023-07-08T14:25:17;93102.22;;;25.36;69.83
39681;BME280;26327;42.550;23.120;2023-07-08T14:27:45;93099.03;;;25.24;70.14